sensor_id;sensor_type;location;lat;lon;timestamp;P1;durP1;ratioP1;P2;durP2;ratioP2
49942;SDS011;36011;53.362;58.948;2022-10-30T00:02:09;6.72;;;3.53;;
49942;SDS011;36011;53.362;58.948;2022-10-30T00:05:13;9.20;;;4.15;;
49942;SDS011;36011;53.362;58.948;2022-10-30T00:08:19;10.30;;;3.90;;
49942;SDS011;36011;53.362;58.948;2022-10-30T00:11:29;7.97;;;3.95;;
49942;SDS011;36011;53.362;58.948;2022-10-30T00:14:31;8.50;;;3.78;;
49942;SDS011;36011;53.362;58.948;2022-10-30T00:17:37;9.50;;;4.00;;
49942;SDS011;36011;53.362;58.948;2022-10-30T00:20:43;6.70;;;3.30;;
49942;SDS011;36011;53.362;58.948;2022-10-30T00:23:46;8.27;;;3.83;;
49942;SDS011;36011;53.362;58.948;2022-10-30T00:26:54;6.20;;;3.10;;
49942;SDS011;36011;53.362;58.948;2022-10-30T00:30:00;10.02;;;3.97;;
49942;SDS011;36011;53.362;58.948;2022-10-30T00:33:05;9.90;;;3.33;;
49942;SDS011;36011;53.362;58.948;2022-10-30T00:36:07;4.07;;;3.10;;
49942;SDS011;36011;53.362;58.948;2022-10-30T00:39:08;16.42;;;3.53;;
49942;SDS011;36011;53.362;58.948;2022-10-30T00:42:13;12.40;;;3.50;;
49942;SDS011;36011;53.362;58.948;2022-10-30T00:45:20;10.60;;;4.07;;
49942;SDS011;36011;53.362;58.948;2022-10-30T00:48:24;12.02;;;5.68;;
49942;SDS011;36011;53.362;58.948;2022-10-30T00:51:31;21.67;;;5.30;;
49942;SDS011;36011;53.362;58.948;2022-10-30T00:54:37;14.07;;;3.75;;
49942;SDS011;36011;53.362;58.948;2022-10-30T00:57:39;10.15;;;2.90;;
49942;SDS011;36011;53.362;58.948;2022-10-30T01:00:42;11.67;;;4.20;;
49942;SDS011;36011;53.362;58.948;2022-10-30T01:03:51;17.30;;;3.92;;
49942;SDS011;36011;53.362;58.948;2022-10-30T01:06:56;8.40;;;2.85;;
49942;SDS011;36011;53.362;58.948;2022-10-30T01:09:59;9.88;;;3.90;;
49942;SDS011;36011;53.362;58.948;2022-10-30T01:13:03;7.93;;;3.40;;
49942;SDS011;36011;53.362;58.948;2022-10-30T01:16:24;6.03;;;3.00;;
49942;SDS011;36011;53.362;58.948;2022-10-30T01:26:30;7.43;;;3.60;;
49942;SDS011;36011;53.362;58.948;2022-10-30T01:39:38;7.80;;;3.60;;
49942;SDS011;36011;53.362;58.948;2022-10-30T02:02:37;10.20;;;4.88;;
49942;SDS011;36011;53.362;58.948;2022-10-30T02:05:47;6.63;;;3.70;;
49942;SDS011;36011;53.362;58.948;2022-10-30T02:08:55;5.47;;;3.47;;
49942;SDS011;36011;53.362;58.948;2022-10-30T02:12:01;5.88;;;3.40;;
49942;SDS011;36011;53.362;58.948;2022-10-30T02:15:05;5.65;;;3.30;;
49942;SDS011;36011;53.362;58.948;2022-10-30T02:18:08;9.25;;;3.75;;
49942;SDS011;36011;53.362;58.948;2022-10-30T02:21:12;5.30;;;3.45;;
49942;SDS011;36011;53.362;58.948;2022-10-30T02:24:13;4.15;;;2.80;;
49942;SDS011;36011;53.362;58.948;2022-10-30T02:27:15;6.55;;;3.47;;
49942;SDS011;36011;53.362;58.948;2022-10-30T02:30:20;6.03;;;3.70;;
49942;SDS011;36011;53.362;58.948;2022-10-30T02:33:23;4.85;;;3.30;;
49942;SDS011;36011;53.362;58.948;2022-10-30T02:36:27;7.55;;;3.60;;
49942;SDS011;36011;53.362;58.948;2022-10-30T02:39:29;7.75;;;3.40;;
49942;SDS011;36011;53.362;58.948;2022-10-30T02:42:33;5.22;;;3.42;;
49942;SDS011;36011;53.362;58.948;2022-10-30T02:45:37;7.28;;;3.35;;
49942;SDS011;36011;53.362;58.948;2022-10-30T02:48:41;6.78;;;3.58;;
49942;SDS011;36011;53.362;58.948;2022-10-30T02:51:42;6.90;;;3.85;;
49942;SDS011;36011;53.362;58.948;2022-10-30T02:54:46;6.95;;;3.63;;
49942;SDS011;36011;53.362;58.948;2022-10-30T02:57:47;7.78;;;4.00;;
49942;SDS011;36011;53.362;58.948;2022-10-30T03:00:49;9.77;;;4.68;;
49942;SDS011;36011;53.362;58.948;2022-10-30T03:03:54;6.00;;;3.38;;
49942;SDS011;36011;53.362;58.948;2022-10-30T03:06:57;7.57;;;3.75;;
49942;SDS011;36011;53.362;58.948;2022-10-30T03:10:02;7.80;;;3.72;;
49942;SDS011;36011;53.362;58.948;2022-10-30T03:16:09;6.32;;;3.65;;
49942;SDS011;36011;53.362;58.948;2022-10-30T03:19:13;6.60;;;3.92;;
49942;SDS011;36011;53.362;58.948;2022-10-30T03:22:17;8.15;;;3.75;;
49942;SDS011;36011;53.362;58.948;2022-10-30T03:25:21;8.68;;;4.53;;
49942;SDS011;36011;53.362;58.948;2022-10-30T03:28:26;9.80;;;4.38;;
49942;SDS011;36011;53.362;58.948;2022-10-30T03:31:29;7.97;;;3.92;;
49942;SDS011;36011;53.362;58.948;2022-10-30T03:34:32;7.80;;;4.07;;
49942;SDS011;36011;53.362;58.948;2022-10-30T03:37:36;7.55;;;4.18;;
49942;SDS011;36011;53.362;58.948;2022-10-30T03:40:37;6.47;;;4.35;;
49942;SDS011;36011;53.362;58.948;2022-10-30T03:43:46;7.55;;;4.30;;
49942;SDS011;36011;53.362;58.948;2022-10-30T03:46:52;8.75;;;4.30;;
49942;SDS011;36011;53.362;58.948;2022-10-30T03:49:53;11.02;;;5.15;;
49942;SDS011;36011;53.362;58.948;2022-10-30T03:52:56;7.88;;;4.25;;
49942;SDS011;36011;53.362;58.948;2022-10-30T03:56:01;7.17;;;3.80;;
49942;SDS011;36011;53.362;58.948;2022-10-30T03:59:06;8.68;;;4.35;;
49942;SDS011;36011;53.362;58.948;2022-10-30T04:02:10;7.45;;;3.88;;
49942;SDS011;36011;53.362;58.948;2022-10-30T04:05:14;7.47;;;3.75;;
49942;SDS011;36011;53.362;58.948;2022-10-30T04:08:18;8.88;;;3.75;;
49942;SDS011;36011;53.362;58.948;2022-10-30T04:11:21;8.20;;;4.25;;
49942;SDS011;36011;53.362;58.948;2022-10-30T04:14:25;9.68;;;4.45;;
49942;SDS011;36011;53.362;58.948;2022-10-30T04:17:32;8.63;;;4.35;;
49942;SDS011;36011;53.362;58.948;2022-10-30T04:20:37;8.63;;;4.03;;
49942;SDS011;36011;53.362;58.948;2022-10-30T04:23:39;6.72;;;3.50;;
49942;SDS011;36011;53.362;58.948;2022-10-30T04:26:41;7.55;;;4.07;;
49942;SDS011;36011;53.362;58.948;2022-10-30T04:29:48;7.30;;;4.63;;
49942;SDS011;36011;53.362;58.948;2022-10-30T04:32:52;8.90;;;4.75;;
49942;SDS011;36011;53.362;58.948;2022-10-30T04:35:55;8.50;;;4.43;;
49942;SDS011;36011;53.362;58.948;2022-10-30T04:38:57;11.88;;;4.90;;
49942;SDS011;36011;53.362;58.948;2022-10-30T04:42:02;11.23;;;4.88;;
49942;SDS011;36011;53.362;58.948;2022-10-30T04:45:04;8.48;;;4.15;;
49942;SDS011;36011;53.362;58.948;2022-10-30T04:48:13;11.50;;;4.53;;
49942;SDS011;36011;53.362;58.948;2022-10-30T04:51:18;7.82;;;3.88;;
49942;SDS011;36011;53.362;58.948;2022-10-30T04:54:23;8.07;;;4.80;;
49942;SDS011;36011;53.362;58.948;2022-10-30T04:57:26;9.32;;;4.43;;
49942;SDS011;36011;53.362;58.948;2022-10-30T05:00:36;8.40;;;4.65;;
49942;SDS011;36011;53.362;58.948;2022-10-30T05:03:40;10.38;;;5.13;;
49942;SDS011;36011;53.362;58.948;2022-10-30T05:06:44;9.05;;;3.88;;
49942;SDS011;36011;53.362;58.948;2022-10-30T05:09:48;7.40;;;4.18;;
49942;SDS011;36011;53.362;58.948;2022-10-30T05:12:53;7.50;;;4.45;;
49942;SDS011;36011;53.362;58.948;2022-10-30T05:15:56;6.85;;;3.78;;
49942;SDS011;36011;53.362;58.948;2022-10-30T05:19:05;7.32;;;4.03;;
49942;SDS011;36011;53.362;58.948;2022-10-30T05:22:09;4.88;;;3.70;;
49942;SDS011;36011;53.362;58.948;2022-10-30T05:25:11;5.45;;;3.22;;
49942;SDS011;36011;53.362;58.948;2022-10-30T05:28:15;5.05;;;3.50;;
49942;SDS011;36011;53.362;58.948;2022-10-30T05:31:17;5.72;;;3.25;;
49942;SDS011;36011;53.362;58.948;2022-10-30T05:34:25;6.82;;;2.97;;
49942;SDS011;36011;53.362;58.948;2022-10-30T05:37:28;3.60;;;2.33;;
49942;SDS011;36011;53.362;58.948;2022-10-30T05:43:37;2.50;;;2.10;;
49942;SDS011;36011;53.362;58.948;2022-10-30T05:46:38;3.45;;;2.65;;
49942;SDS011;36011;53.362;58.948;2022-10-30T05:49:43;2.75;;;2.22;;
49942;SDS011;36011;53.362;58.948;2022-10-30T05:52:47;2.67;;;2.05;;
49942;SDS011;36011;53.362;58.948;2022-10-30T05:55:54;4.53;;;2.28;;
49942;SDS011;36011;53.362;58.948;2022-10-30T05:59:07;3.58;;;2.30;;
49942;SDS011;36011;53.362;58.948;2022-10-30T06:02:35;2.63;;;2.08;;
49942;SDS011;36011;53.362;58.948;2022-10-30T06:05:37;3.92;;;2.45;;
49942;SDS011;36011;53.362;58.948;2022-10-30T06:08:47;4.22;;;2.58;;
49942;SDS011;36011;53.362;58.948;2022-10-30T06:11:51;4.85;;;2.80;;
49942;SDS011;36011;53.362;58.948;2022-10-30T06:14:56;6.05;;;2.80;;
49942;SDS011;36011;53.362;58.948;2022-10-30T06:18:00;4.78;;;2.65;;
49942;SDS011;36011;53.362;58.948;2022-10-30T06:21:04;3.80;;;3.40;;
49942;SDS011;36011;53.362;58.948;2022-10-30T06:24:12;5.22;;;3.72;;
49942;SDS011;36011;53.362;58.948;2022-10-30T06:27:17;6.25;;;4.07;;
49942;SDS011;36011;53.362;58.948;2022-10-30T06:30:23;5.70;;;4.00;;
49942;SDS011;36011;53.362;58.948;2022-10-30T06:33:28;4.28;;;3.30;;
49942;SDS011;36011;53.362;58.948;2022-10-30T06:36:35;4.30;;;3.00;;
49942;SDS011;36011;53.362;58.948;2022-10-30T06:39:39;8.02;;;4.40;;
49942;SDS011;36011;53.362;58.948;2022-10-30T06:42:49;9.45;;;4.78;;
49942;SDS011;36011;53.362;58.948;2022-10-30T06:45:59;7.70;;;4.32;;
49942;SDS011;36011;53.362;58.948;2022-10-30T06:49:01;8.95;;;5.78;;
49942;SDS011;36011;53.362;58.948;2022-10-30T06:52:03;9.05;;;6.28;;
49942;SDS011;36011;53.362;58.948;2022-10-30T06:55:08;10.25;;;7.07;;
49942;SDS011;36011;53.362;58.948;2022-10-30T07:01:12;9.63;;;6.32;;
49942;SDS011;36011;53.362;58.948;2022-10-30T07:04:17;8.75;;;6.88;;
49942;SDS011;36011;53.362;58.948;2022-10-30T07:07:23;9.20;;;5.60;;
49942;SDS011;36011;53.362;58.948;2022-10-30T07:10:30;7.78;;;6.00;;
49942;SDS011;36011;53.362;58.948;2022-10-30T07:13:35;4.93;;;3.85;;
49942;SDS011;36011;53.362;58.948;2022-10-30T07:16:39;5.93;;;4.38;;
49942;SDS011;36011;53.362;58.948;2022-10-30T07:19:41;6.25;;;4.07;;
49942;SDS011;36011;53.362;58.948;2022-10-30T07:22:43;4.60;;;4.10;;
49942;SDS011;36011;53.362;58.948;2022-10-30T07:25:48;6.38;;;3.33;;
49942;SDS011;36011;53.362;58.948;2022-10-30T07:28:50;4.53;;;3.15;;
49942;SDS011;36011;53.362;58.948;2022-10-30T07:31:58;4.05;;;3.38;;
49942;SDS011;36011;53.362;58.948;2022-10-30T07:35:00;3.97;;;2.90;;
49942;SDS011;36011;53.362;58.948;2022-10-30T07:38:05;5.22;;;3.95;;
49942;SDS011;36011;53.362;58.948;2022-10-30T07:41:12;5.68;;;3.80;;
49942;SDS011;36011;53.362;58.948;2022-10-30T07:44:18;4.97;;;4.03;;
49942;SDS011;36011;53.362;58.948;2022-10-30T07:47:26;3.67;;;3.00;;
49942;SDS011;36011;53.362;58.948;2022-10-30T07:50:31;4.97;;;3.22;;
49942;SDS011;36011;53.362;58.948;2022-10-30T07:53:35;6.72;;;3.95;;
49942;SDS011;36011;53.362;58.948;2022-10-30T07:56:40;6.72;;;4.05;;
49942;SDS011;36011;53.362;58.948;2022-10-30T07:59:42;6.82;;;4.88;;
49942;SDS011;36011;53.362;58.948;2022-10-30T08:02:49;9.88;;;5.72;;
49942;SDS011;36011;53.362;58.948;2022-10-30T08:06:01;5.97;;;4.25;;
49942;SDS011;36011;53.362;58.948;2022-10-30T08:09:08;11.13;;;5.32;;
49942;SDS011;36011;53.362;58.948;2022-10-30T08:12:10;7.05;;;4.45;;
49942;SDS011;36011;53.362;58.948;2022-10-30T08:15:13;5.47;;;3.38;;
49942;SDS011;36011;53.362;58.948;2022-10-30T08:18:15;5.30;;;3.75;;
49942;SDS011;36011;53.362;58.948;2022-10-30T08:21:19;5.43;;;3.78;;
49942;SDS011;36011;53.362;58.948;2022-10-30T08:24:25;6.13;;;3.47;;
49942;SDS011;36011;53.362;58.948;2022-10-30T08:27:32;5.32;;;4.10;;
49942;SDS011;36011;53.362;58.948;2022-10-30T08:30:36;7.75;;;4.07;;
49942;SDS011;36011;53.362;58.948;2022-10-30T08:33:38;4.60;;;3.70;;
49942;SDS011;36011;53.362;58.948;2022-10-30T08:36:40;4.25;;;3.47;;
49942;SDS011;36011;53.362;58.948;2022-10-30T08:39:44;4.78;;;3.42;;
49942;SDS011;36011;53.362;58.948;2022-10-30T08:42:50;3.65;;;3.08;;
49942;SDS011;36011;53.362;58.948;2022-10-30T08:46:01;4.93;;;3.50;;
49942;SDS011;36011;53.362;58.948;2022-10-30T08:49:07;4.18;;;3.03;;
49942;SDS011;36011;53.362;58.948;2022-10-30T08:52:09;3.65;;;2.78;;
49942;SDS011;36011;53.362;58.948;2022-10-30T08:55:10;7.00;;;3.00;;
49942;SDS011;36011;53.362;58.948;2022-10-30T08:58:17;4.03;;;3.10;;
49942;SDS011;36011;53.362;58.948;2022-10-30T09:01:20;4.82;;;3.67;;
49942;SDS011;36011;53.362;58.948;2022-10-30T09:04:26;4.43;;;3.17;;
49942;SDS011;36011;53.362;58.948;2022-10-30T09:07:31;4.50;;;3.20;;
49942;SDS011;36011;53.362;58.948;2022-10-30T09:10:37;2.95;;;2.30;;
49942;SDS011;36011;53.362;58.948;2022-10-30T09:13:44;3.88;;;3.20;;
49942;SDS011;36011;53.362;58.948;2022-10-30T09:16:50;4.47;;;2.40;;
49942;SDS011;36011;53.362;58.948;2022-10-30T09:19:56;5.50;;;3.22;;
49942;SDS011;36011;53.362;58.948;2022-10-30T09:23:00;4.72;;;2.78;;
49942;SDS011;36011;53.362;58.948;2022-10-30T09:26:08;4.15;;;2.75;;
49942;SDS011;36011;53.362;58.948;2022-10-30T09:29:16;4.10;;;2.85;;
49942;SDS011;36011;53.362;58.948;2022-10-30T09:32:25;4.22;;;2.75;;
49942;SDS011;36011;53.362;58.948;2022-10-30T09:35:32;4.30;;;2.40;;
49942;SDS011;36011;53.362;58.948;2022-10-30T09:38:37;3.10;;;2.47;;
49942;SDS011;36011;53.362;58.948;2022-10-30T09:45:22;3.30;;;2.38;;
49942;SDS011;36011;53.362;58.948;2022-10-30T09:55:39;3.97;;;3.15;;
49942;SDS011;36011;53.362;58.948;2022-10-30T10:05:28;5.40;;;3.78;;
49942;SDS011;36011;53.362;58.948;2022-10-30T10:15:33;2.35;;;1.77;;
49942;SDS011;36011;53.362;58.948;2022-10-30T10:18:48;5.78;;;3.25;;
49942;SDS011;36011;53.362;58.948;2022-10-30T10:22:01;6.80;;;4.18;;
49942;SDS011;36011;53.362;58.948;2022-10-30T10:25:17;5.25;;;3.75;;
49942;SDS011;36011;53.362;58.948;2022-10-30T10:28:47;5.43;;;3.38;;
49942;SDS011;36011;53.362;58.948;2022-10-30T10:32:09;11.10;;;5.22;;
49942;SDS011;36011;53.362;58.948;2022-10-30T10:35:36;5.07;;;3.25;;
49942;SDS011;36011;53.362;58.948;2022-10-30T10:39:20;4.68;;;2.80;;
49942;SDS011;36011;53.362;58.948;2022-10-30T10:42:34;4.50;;;2.97;;
49942;SDS011;36011;53.362;58.948;2022-10-30T10:46:18;3.47;;;2.10;;
49942;SDS011;36011;53.362;58.948;2022-10-30T10:53:22;3.60;;;2.45;;
49942;SDS011;36011;53.362;58.948;2022-10-30T10:56:48;5.45;;;3.03;;
49942;SDS011;36011;53.362;58.948;2022-10-30T11:00:05;5.53;;;3.45;;
49942;SDS011;36011;53.362;58.948;2022-10-30T11:03:16;5.57;;;2.75;;
49942;SDS011;36011;53.362;58.948;2022-10-30T11:06:31;9.07;;;5.18;;
49942;SDS011;36011;53.362;58.948;2022-10-30T11:09:39;5.57;;;3.22;;
49942;SDS011;36011;53.362;58.948;2022-10-30T11:12:44;4.70;;;3.05;;
49942;SDS011;36011;53.362;58.948;2022-10-30T11:15:53;3.03;;;2.47;;
49942;SDS011;36011;53.362;58.948;2022-10-30T11:19:27;5.70;;;2.95;;
49942;SDS011;36011;53.362;58.948;2022-10-30T11:22:33;4.28;;;2.92;;
49942;SDS011;36011;53.362;58.948;2022-10-30T11:25:41;3.78;;;2.85;;
49942;SDS011;36011;53.362;58.948;2022-10-30T11:28:51;4.88;;;2.80;;
49942;SDS011;36011;53.362;58.948;2022-10-30T11:32:02;5.28;;;3.50;;
49942;SDS011;36011;53.362;58.948;2022-10-30T11:38:19;5.50;;;2.95;;
49942;SDS011;36011;53.362;58.948;2022-10-30T11:41:23;3.45;;;2.30;;
49942;SDS011;36011;53.362;58.948;2022-10-30T11:44:34;9.25;;;4.20;;
49942;SDS011;36011;53.362;58.948;2022-10-30T11:47:39;10.25;;;4.80;;
49942;SDS011;36011;53.362;58.948;2022-10-30T11:50:46;11.27;;;6.32;;
49942;SDS011;36011;53.362;58.948;2022-10-30T11:53:52;8.75;;;3.85;;
49942;SDS011;36011;53.362;58.948;2022-10-30T11:56:56;4.95;;;2.78;;
49942;SDS011;36011;53.362;58.948;2022-10-30T12:00:07;6.43;;;3.58;;
49942;SDS011;36011;53.362;58.948;2022-10-30T12:03:27;5.25;;;3.70;;
49942;SDS011;36011;53.362;58.948;2022-10-30T12:06:36;4.45;;;2.22;;
49942;SDS011;36011;53.362;58.948;2022-10-30T12:09:41;9.25;;;4.10;;
49942;SDS011;36011;53.362;58.948;2022-10-30T12:12:49;6.75;;;3.47;;
49942;SDS011;36011;53.362;58.948;2022-10-30T12:19:20;2.58;;;1.83;;
49942;SDS011;36011;53.362;58.948;2022-10-30T12:22:27;5.03;;;2.55;;
49942;SDS011;36011;53.362;58.948;2022-10-30T12:25:32;3.63;;;2.25;;
49942;SDS011;36011;53.362;58.948;2022-10-30T12:28:36;4.85;;;2.42;;
49942;SDS011;36011;53.362;58.948;2022-10-30T12:34:48;6.20;;;3.08;;
49942;SDS011;36011;53.362;58.948;2022-10-30T12:38:00;9.93;;;2.33;;
49942;SDS011;36011;53.362;58.948;2022-10-30T12:44:20;2.90;;;2.03;;
49942;SDS011;36011;53.362;58.948;2022-10-30T12:47:32;4.68;;;3.15;;
49942;SDS011;36011;53.362;58.948;2022-10-30T12:50:43;6.13;;;3.10;;
49942;SDS011;36011;53.362;58.948;2022-10-30T12:57:12;4.85;;;2.17;;
49942;SDS011;36011;53.362;58.948;2022-10-30T13:00:20;3.63;;;2.42;;
49942;SDS011;36011;53.362;58.948;2022-10-30T13:13:31;4.00;;;2.10;;
49942;SDS011;36011;53.362;58.948;2022-10-30T13:16:38;2.58;;;2.03;;
49942;SDS011;36011;53.362;58.948;2022-10-30T13:19:40;1.88;;;1.55;;
49942;SDS011;36011;53.362;58.948;2022-10-30T13:22:51;2.83;;;1.98;;
49942;SDS011;36011;53.362;58.948;2022-10-30T13:32:44;5.15;;;3.20;;
49942;SDS011;36011;53.362;58.948;2022-10-30T13:39:18;12.10;;;6.22;;
49942;SDS011;36011;53.362;58.948;2022-10-30T13:52:30;4.68;;;2.33;;
49942;SDS011;36011;53.362;58.948;2022-10-30T13:55:43;3.78;;;2.67;;
49942;SDS011;36011;53.362;58.948;2022-10-30T13:58:55;2.65;;;1.48;;
49942;SDS011;36011;53.362;58.948;2022-10-30T14:09:37;4.93;;;2.67;;
49942;SDS011;36011;53.362;58.948;2022-10-30T14:12:48;5.32;;;2.95;;
49942;SDS011;36011;53.362;58.948;2022-10-30T14:16:10;5.32;;;2.83;;
49942;SDS011;36011;53.362;58.948;2022-10-30T14:23:18;5.85;;;3.10;;
49942;SDS011;36011;53.362;58.948;2022-10-30T14:26:25;5.78;;;3.50;;
49942;SDS011;36011;53.362;58.948;2022-10-30T14:32:35;4.80;;;3.13;;
49942;SDS011;36011;53.362;58.948;2022-10-30T14:35:41;4.65;;;3.35;;
49942;SDS011;36011;53.362;58.948;2022-10-30T14:39:28;5.07;;;3.03;;
49942;SDS011;36011;53.362;58.948;2022-10-30T14:49:14;6.90;;;3.38;;
49942;SDS011;36011;53.362;58.948;2022-10-30T14:56:15;4.45;;;2.80;;
49942;SDS011;36011;53.362;58.948;2022-10-30T14:59:34;6.57;;;2.90;;
49942;SDS011;36011;53.362;58.948;2022-10-30T15:02:40;2.38;;;2.13;;
49942;SDS011;36011;53.362;58.948;2022-10-30T15:06:03;3.60;;;2.75;;
49942;SDS011;36011;53.362;58.948;2022-10-30T15:16:07;4.30;;;2.00;;
49942;SDS011;36011;53.362;58.948;2022-10-30T15:19:12;4.97;;;2.22;;
49942;SDS011;36011;53.362;58.948;2022-10-30T15:22:18;3.90;;;2.22;;
49942;SDS011;36011;53.362;58.948;2022-10-30T15:25:29;4.47;;;2.20;;
49942;SDS011;36011;53.362;58.948;2022-10-30T15:29:04;3.22;;;1.77;;
49942;SDS011;36011;53.362;58.948;2022-10-30T15:35:19;2.08;;;1.40;;
49942;SDS011;36011;53.362;58.948;2022-10-30T15:38:25;4.43;;;2.72;;
49942;SDS011;36011;53.362;58.948;2022-10-30T15:41:44;4.45;;;2.65;;
49942;SDS011;36011;53.362;58.948;2022-10-30T15:44:49;6.30;;;2.63;;
49942;SDS011;36011;53.362;58.948;2022-10-30T15:47:59;4.28;;;2.33;;
49942;SDS011;36011;53.362;58.948;2022-10-30T15:51:06;5.07;;;2.65;;
49942;SDS011;36011;53.362;58.948;2022-10-30T15:54:14;5.20;;;2.80;;
49942;SDS011;36011;53.362;58.948;2022-10-30T15:57:31;5.07;;;2.88;;
49942;SDS011;36011;53.362;58.948;2022-10-30T16:00:40;5.35;;;2.83;;
49942;SDS011;36011;53.362;58.948;2022-10-30T16:03:49;4.35;;;2.53;;
49942;SDS011;36011;53.362;58.948;2022-10-30T16:06:55;5.78;;;3.42;;
49942;SDS011;36011;53.362;58.948;2022-10-30T16:09:59;5.00;;;2.90;;
49942;SDS011;36011;53.362;58.948;2022-10-30T16:13:09;4.78;;;2.35;;
49942;SDS011;36011;53.362;58.948;2022-10-30T16:16:38;5.65;;;3.47;;
49942;SDS011;36011;53.362;58.948;2022-10-30T16:19:46;3.20;;;1.92;;
49942;SDS011;36011;53.362;58.948;2022-10-30T16:22:52;7.60;;;3.95;;
49942;SDS011;36011;53.362;58.948;2022-10-30T16:25:54;6.68;;;4.22;;
49942;SDS011;36011;53.362;58.948;2022-10-30T16:29:00;8.27;;;4.53;;
49942;SDS011;36011;53.362;58.948;2022-10-30T16:32:11;9.55;;;4.43;;
49942;SDS011;36011;53.362;58.948;2022-10-30T16:35:18;10.07;;;4.65;;
49942;SDS011;36011;53.362;58.948;2022-10-30T16:38:25;8.68;;;3.85;;
49942;SDS011;36011;53.362;58.948;2022-10-30T16:41:34;10.25;;;5.18;;
49942;SDS011;36011;53.362;58.948;2022-10-30T16:44:38;10.70;;;4.95;;
49942;SDS011;36011;53.362;58.948;2022-10-30T16:47:51;5.10;;;3.42;;
49942;SDS011;36011;53.362;58.948;2022-10-30T16:51:02;10.52;;;4.25;;
49942;SDS011;36011;53.362;58.948;2022-10-30T16:54:04;15.98;;;6.32;;
49942;SDS011;36011;53.362;58.948;2022-10-30T16:57:12;13.45;;;6.22;;
49942;SDS011;36011;53.362;58.948;2022-10-30T17:00:24;11.73;;;6.22;;
49942;SDS011;36011;53.362;58.948;2022-10-30T17:03:32;19.55;;;7.90;;
49942;SDS011;36011;53.362;58.948;2022-10-30T17:06:41;18.83;;;7.18;;
49942;SDS011;36011;53.362;58.948;2022-10-30T17:09:47;20.02;;;6.63;;
49942;SDS011;36011;53.362;58.948;2022-10-30T17:12:52;20.35;;;9.38;;
49942;SDS011;36011;53.362;58.948;2022-10-30T17:16:34;24.67;;;9.45;;
49942;SDS011;36011;53.362;58.948;2022-10-30T17:19:44;20.45;;;10.05;;
49942;SDS011;36011;53.362;58.948;2022-10-30T17:22:50;23.23;;;9.02;;
49942;SDS011;36011;53.362;58.948;2022-10-30T17:26:08;22.15;;;9.40;;
49942;SDS011;36011;53.362;58.948;2022-10-30T17:29:42;16.88;;;7.38;;
49942;SDS011;36011;53.362;58.948;2022-10-30T17:32:51;18.95;;;9.40;;
49942;SDS011;36011;53.362;58.948;2022-10-30T17:35:54;24.55;;;10.45;;
49942;SDS011;36011;53.362;58.948;2022-10-30T17:38:58;18.55;;;9.02;;
49942;SDS011;36011;53.362;58.948;2022-10-30T17:41:59;23.77;;;9.15;;
49942;SDS011;36011;53.362;58.948;2022-10-30T17:45:01;22.52;;;10.50;;
49942;SDS011;36011;53.362;58.948;2022-10-30T17:48:14;23.70;;;10.25;;
49942;SDS011;36011;53.362;58.948;2022-10-30T17:51:20;25.25;;;10.52;;
49942;SDS011;36011;53.362;58.948;2022-10-30T17:54:25;14.82;;;6.95;;
49942;SDS011;36011;53.362;58.948;2022-10-30T17:57:27;17.42;;;6.82;;
49942;SDS011;36011;53.362;58.948;2022-10-30T18:00:33;22.65;;;7.18;;
49942;SDS011;36011;53.362;58.948;2022-10-30T18:03:34;16.13;;;9.05;;
49942;SDS011;36011;53.362;58.948;2022-10-30T18:06:39;11.05;;;5.43;;
49942;SDS011;36011;53.362;58.948;2022-10-30T18:09:43;14.73;;;6.72;;
49942;SDS011;36011;53.362;58.948;2022-10-30T18:15:51;9.05;;;4.97;;
49942;SDS011;36011;53.362;58.948;2022-10-30T18:18:57;15.50;;;7.97;;
49942;SDS011;36011;53.362;58.948;2022-10-30T18:22:03;12.82;;;6.05;;
49942;SDS011;36011;53.362;58.948;2022-10-30T18:25:38;12.43;;;5.78;;
49942;SDS011;36011;53.362;58.948;2022-10-30T18:28:37;13.05;;;6.80;;
49942;SDS011;36011;53.362;58.948;2022-10-30T18:31:38;9.38;;;4.80;;
49942;SDS011;36011;53.362;58.948;2022-10-30T18:34:42;11.35;;;4.70;;
49942;SDS011;36011;53.362;58.948;2022-10-30T18:37:43;9.68;;;5.45;;
49942;SDS011;36011;53.362;58.948;2022-10-30T18:40:48;15.20;;;5.32;;
49942;SDS011;36011;53.362;58.948;2022-10-30T18:43:50;9.77;;;5.40;;
49942;SDS011;36011;53.362;58.948;2022-10-30T18:46:57;7.47;;;3.67;;
49942;SDS011;36011;53.362;58.948;2022-10-30T18:49:58;7.60;;;3.22;;
49942;SDS011;36011;53.362;58.948;2022-10-30T18:53:11;7.97;;;4.47;;
49942;SDS011;36011;53.362;58.948;2022-10-30T18:56:15;5.93;;;3.65;;
49942;SDS011;36011;53.362;58.948;2022-10-30T18:59:19;9.13;;;4.82;;
49942;SDS011;36011;53.362;58.948;2022-10-30T19:02:21;13.70;;;5.43;;
49942;SDS011;36011;53.362;58.948;2022-10-30T19:05:28;6.97;;;4.50;;
49942;SDS011;36011;53.362;58.948;2022-10-30T19:08:35;8.27;;;4.55;;
49942;SDS011;36011;53.362;58.948;2022-10-30T19:11:37;5.80;;;3.42;;
49942;SDS011;36011;53.362;58.948;2022-10-30T19:14:38;12.93;;;5.60;;
49942;SDS011;36011;53.362;58.948;2022-10-30T19:17:45;8.10;;;3.83;;
49942;SDS011;36011;53.362;58.948;2022-10-30T19:20:46;12.48;;;6.38;;
49942;SDS011;36011;53.362;58.948;2022-10-30T19:23:47;14.95;;;6.07;;
49942;SDS011;36011;53.362;58.948;2022-10-30T19:26:49;11.75;;;4.53;;
49942;SDS011;36011;53.362;58.948;2022-10-30T19:29:56;8.98;;;4.45;;
49942;SDS011;36011;53.362;58.948;2022-10-30T19:33:03;7.65;;;3.20;;
49942;SDS011;36011;53.362;58.948;2022-10-30T19:36:04;16.30;;;5.78;;
49942;SDS011;36011;53.362;58.948;2022-10-30T19:39:10;9.93;;;6.00;;
49942;SDS011;36011;53.362;58.948;2022-10-30T19:42:13;17.38;;;5.65;;
49942;SDS011;36011;53.362;58.948;2022-10-30T19:45:19;6.38;;;3.08;;
49942;SDS011;36011;53.362;58.948;2022-10-30T19:48:26;8.75;;;4.18;;
49942;SDS011;36011;53.362;58.948;2022-10-30T19:51:27;7.63;;;3.67;;
49942;SDS011;36011;53.362;58.948;2022-10-30T19:54:32;6.93;;;3.92;;
49942;SDS011;36011;53.362;58.948;2022-10-30T19:57:37;7.85;;;4.07;;
49942;SDS011;36011;53.362;58.948;2022-10-30T20:00:40;3.70;;;2.10;;
49942;SDS011;36011;53.362;58.948;2022-10-30T20:06:47;6.60;;;3.95;;
49942;SDS011;36011;53.362;58.948;2022-10-30T20:09:51;5.03;;;3.65;;
49942;SDS011;36011;53.362;58.948;2022-10-30T20:12:52;7.20;;;3.42;;
49942;SDS011;36011;53.362;58.948;2022-10-30T20:15:54;7.82;;;3.75;;
49942;SDS011;36011;53.362;58.948;2022-10-30T20:19:00;5.55;;;3.30;;
49942;SDS011;36011;53.362;58.948;2022-10-30T20:22:19;5.88;;;3.78;;
49942;SDS011;36011;53.362;58.948;2022-10-30T20:25:23;7.88;;;2.88;;
49942;SDS011;36011;53.362;58.948;2022-10-30T20:28:30;4.30;;;2.25;;
49942;SDS011;36011;53.362;58.948;2022-10-30T20:31:36;4.97;;;2.97;;
49942;SDS011;36011;53.362;58.948;2022-10-30T20:34:40;6.38;;;3.20;;
49942;SDS011;36011;53.362;58.948;2022-10-30T20:37:55;5.93;;;2.78;;
49942;SDS011;36011;53.362;58.948;2022-10-30T20:41:03;5.03;;;3.25;;
49942;SDS011;36011;53.362;58.948;2022-10-30T20:44:07;4.95;;;2.53;;
49942;SDS011;36011;53.362;58.948;2022-10-30T20:47:13;3.30;;;2.20;;
49942;SDS011;36011;53.362;58.948;2022-10-30T20:50:17;3.47;;;2.17;;
49942;SDS011;36011;53.362;58.948;2022-10-30T20:53:24;3.75;;;2.53;;
49942;SDS011;36011;53.362;58.948;2022-10-30T20:56:30;6.38;;;2.90;;
49942;SDS011;36011;53.362;58.948;2022-10-30T20:59:36;5.20;;;2.45;;
49942;SDS011;36011;53.362;58.948;2022-10-30T21:02:43;4.78;;;2.25;;
49942;SDS011;36011;53.362;58.948;2022-10-30T21:05:53;6.22;;;3.50;;
49942;SDS011;36011;53.362;58.948;2022-10-30T21:08:56;5.22;;;3.08;;